Time;durP1;ratioP1;P1;durP2;ratioP2;P2;SDS_P1;SDS_P2;PMS_P1;PMS_P2;Temp;Humidity;BMP_temperature;BMP_pressure;BME280_temperature;BME280_humidity;BME280_pressure;Samples;Min_cycle;Max_cycle;Signal;HPM_P1;HPM_P2
2021/10/03 00:00:54;;;;;;;2.63;1.85;;;16.50;99.90;;;;;;5074827;28;20062;-85
2021/10/03 00:03:22;;;;;;;8.52;2.72;;;16.40;99.90;;;;;;5052796;28;20024;-85
2021/10/03 00:05:48;;;;;;;4.00;3.03;;;16.40;99.90;;;;;;5057511;28;20036;-86
2021/10/03 00:08:14;;;;;;;3.05;2.50;;;16.40;99.90;;;;;;5053157;28;20020;-85
2021/10/03 00:10:40;;;;;;;4.68;3.10;;;16.40;99.90;;;;;;5058235;28;20035;-85
2021/10/03 00:13:05;;;;;;;6.18;3.15;;;16.40;99.90;;;;;;5057997;28;20031;-85
2021/10/03 00:15:32;;;;;;;6.88;2.80;;;16.40;99.90;;;;;;5068136;28;20689;-85
2021/10/03 00:17:57;;;;;;;2.55;2.17;;;16.40;99.90;;;;;;5069733;28;20105;-85
2021/10/03 00:20:23;;;;;;;4.60;2.53;;;16.40;99.90;;;;;;5050572;28;20032;-85
2021/10/03 00:22:49;;;;;;;4.03;2.85;;;16.40;99.90;;;;;;5071602;28;20031;-85
2021/10/03 00:25:14;;;;;;;5.22;2.65;;;16.40;99.90;;;;;;5056841;28;20027;-85
2021/10/03 00:27:43;;;;;;;4.00;2.22;;;16.40;99.90;;;;;;5058361;28;20027;-86
2021/10/03 00:30:09;;;;;;;3.38;2.78;;;16.40;99.90;;;;;;5074790;28;20023;-85
2021/10/03 00:32:35;;;;;;;4.93;2.58;;;16.40;99.90;;;;;;5058142;28;20386;-85
2021/10/03 00:35:00;;;;;;;2.85;2.53;;;16.30;99.90;;;;;;5074286;28;20032;-86
2021/10/03 00:37:26;;;;;;;3.85;2.33;;;16.30;99.90;;;;;;5091417;28;20498;-86
2021/10/03 00:39:51;;;;;;;7.03;2.30;;;16.30;99.90;;;;;;5074167;28;20044;-85
2021/10/03 00:42:17;;;;;;;10.75;2.72;;;16.30;99.90;;;;;;5075026;28;20103;-86
2021/10/03 00:44:42;;;;;;;3.80;2.30;;;16.20;99.90;;;;;;5058864;28;20023;-86
2021/10/03 00:47:08;;;;;;;3.40;2.35;;;16.20;99.90;;;;;;5071057;28;20024;-86
2021/10/03 00:49:36;;;;;;;5.32;2.75;;;16.20;99.90;;;;;;5058652;28;20054;-86
2021/10/03 00:52:05;;;;;;;4.93;2.15;;;16.20;99.90;;;;;;5072511;28;20032;-86
2021/10/03 00:54:31;;;;;;;4.20;2.70;;;16.20;99.90;;;;;;5056673;28;20031;-86
2021/10/03 00:56:57;;;;;;;6.47;3.28;;;16.20;99.90;;;;;;5059431;28;20058;-85
2021/10/03 00:59:23;;;;;;;4.50;2.90;;;16.20;99.90;;;;;;5053394;28;20068;-86
2021/10/03 01:01:48;;;;;;;6.20;3.25;;;16.20;99.90;;;;;;5047063;28;20020;-85
2021/10/03 01:04:14;;;;;;;4.43;2.50;;;16.10;99.90;;;;;;5051074;28;20156;-84
2021/10/03 01:06:41;;;;;;;5.35;3.75;;;16.20;99.90;;;;;;5059851;28;20038;-85
2021/10/03 01:09:07;;;;;;;3.47;2.85;;;16.20;99.90;;;;;;5057205;28;20020;-85
2021/10/03 01:11:32;;;;;;;6.30;3.20;;;16.20;99.90;;;;;;5069650;28;20040;-86
2021/10/03 01:13:58;;;;;;;6.63;3.50;;;16.10;99.90;;;;;;5055917;28;20104;-85
2021/10/03 01:16:24;;;;;;;4.43;3.63;;;16.10;99.90;;;;;;5054952;28;20021;-86
2021/10/03 01:18:49;;;;;;;6.28;2.97;;;16.10;99.90;;;;;;5057026;28;20031;-86
2021/10/03 01:21:15;;;;;;;4.65;3.00;;;16.10;99.90;;;;;;5057936;28;20031;-85
2021/10/03 01:23:42;;;;;;;4.07;2.92;;;16.10;99.90;;;;;;5058352;28;20597;-85
2021/10/03 01:26:08;;;;;;;5.55;3.35;;;16.10;99.90;;;;;;5069564;28;20537;-85
2021/10/03 01:28:34;;;;;;;3.95;3.20;;;16.10;99.90;;;;;;5068562;28;20020;-85
2021/10/03 01:30:59;;;;;;;4.60;2.70;;;16.10;99.90;;;;;;5056558;28;20488;-85
2021/10/03 01:33:26;;;;;;;4.85;2.95;;;16.10;99.90;;;;;;5050994;28;20764;-85
2021/10/03 01:35:52;;;;;;;5.93;3.47;;;16.10;99.90;;;;;;5054701;28;20173;-86
2021/10/03 01:38:18;;;;;;;4.38;2.78;;;16.10;99.90;;;;;;5051623;28;20126;-85
2021/10/03 01:40:46;;;;;;;4.93;2.58;;;16.10;99.90;;;;;;5040161;28;20048;-85
2021/10/03 01:43:12;;;;;;;5.10;2.88;;;16.10;99.90;;;;;;5054956;28;20441;-85
2021/10/03 01:45:37;;;;;;;3.15;1.98;;;16.10;99.90;;;;;;5089461;28;20089;-85
2021/10/03 01:48:16;;;;;;;4.22;2.63;;;16.10;99.90;;;;;;5057935;28;20186;-86
2021/10/03 01:50:45;;;;;;;3.67;2.45;;;16.10;99.90;;;;;;5073309;28;20036;-86
2021/10/03 01:53:15;;;;;;;4.30;2.55;;;16.10;99.90;;;;;;5055156;28;20455;-86
2021/10/03 01:55:41;;;;;;;3.58;2.55;;;16.10;99.90;;;;;;5069555;28;20391;-86
2021/10/03 01:58:07;;;;;;;2.38;1.63;;;16.10;99.90;;;;;;5055785;28;20036;-86
2021/10/03 02:00:34;;;;;;;3.75;2.40;;;16.20;99.90;;;;;;5073093;28;20028;-85
2021/10/03 02:03:01;;;;;;;4.95;2.25;;;16.20;99.90;;;;;;5074104;28;20036;-85
2021/10/03 02:05:27;;;;;;;3.65;2.17;;;16.10;99.90;;;;;;5071502;28;20039;-85
2021/10/03 02:07:52;;;;;;;3.78;1.58;;;16.10;99.90;;;;;;5056452;28;20028;-85
2021/10/03 02:10:18;;;;;;;3.00;2.50;;;16.10;99.90;;;;;;5068956;28;20384;-85
2021/10/03 02:12:44;;;;;;;3.58;1.98;;;16.10;99.90;;;;;;5056354;28;20032;-86
2021/10/03 02:15:09;;;;;;;5.13;2.33;;;16.00;99.90;;;;;;5070660;28;20102;-85
2021/10/03 02:17:35;;;;;;;2.47;1.77;;;16.10;99.90;;;;;;5058104;28;20378;-85
2021/10/03 02:20:00;;;;;;;2.67;2.25;;;16.20;99.90;;;;;;5065307;28;20024;-85
2021/10/03 02:22:26;;;;;;;1.92;1.48;;;16.10;99.90;;;;;;5055195;28;20114;-85
2021/10/03 02:24:56;;;;;;;2.05;1.73;;;16.10;99.90;;;;;;5054951;28;20027;-85
2021/10/03 02:27:25;;;;;;;2.80;1.60;;;16.20;99.90;;;;;;5053766;28;20032;-84
2021/10/03 02:29:51;;;;;;;3.58;2.03;;;16.20;99.90;;;;;;5057445;28;20031;-85
2021/10/03 02:32:17;;;;;;;2.53;1.73;;;16.20;99.90;;;;;;5056640;28;20570;-85
2021/10/03 02:34:43;;;;;;;3.65;2.30;;;16.20;99.90;;;;;;5056382;28;20087;-85
2021/10/03 02:37:08;;;;;;;1.98;1.63;;;16.20;99.90;;;;;;5070182;28;20028;-85
2021/10/03 02:39:34;;;;;;;3.53;1.90;;;16.20;99.90;;;;;;5071391;28;20111;-85
2021/10/03 02:41:59;;;;;;;2.90;1.65;;;16.20;99.90;;;;;;5071788;28;20039;-84
2021/10/03 02:44:25;;;;;;;1.40;1.30;;;16.30;99.90;;;;;;5071587;28;20023;-84
2021/10/03 02:46:50;;;;;;;3.03;1.48;;;16.30;99.90;;;;;;5053268;28;20031;-84
2021/10/03 02:49:16;;;;;;;2.70;1.90;;;16.30;99.90;;;;;;5058402;28;20384;-85
2021/10/03 02:51:41;;;;;;;1.60;1.02;;;16.40;99.90;;;;;;5056109;28;20024;-85
2021/10/03 02:54:07;;;;;;;2.92;1.95;;;16.20;99.90;;;;;;5056462;28;20048;-85
2021/10/03 02:56:32;;;;;;;1.65;1.55;;;16.30;99.90;;;;;;5074499;28;20043;-85
2021/10/03 02:58:58;;;;;;;6.03;1.85;;;16.30;99.90;;;;;;5054401;28;20125;-85
2021/10/03 03:01:24;;;;;;;3.13;1.55;;;16.30;99.90;;;;;;5058576;28;20035;-85
2021/10/03 03:03:51;;;;;;;4.22;2.15;;;16.30;99.90;;;;;;5073617;28;20043;-85
2021/10/03 03:06:16;;;;;;;2.28;1.92;;;16.20;99.90;;;;;;5068831;28;20031;-85
2021/10/03 03:08:42;;;;;;;4.30;1.63;;;16.20;99.90;;;;;;5052698;28;20388;-85
2021/10/03 03:11:08;;;;;;;2.28;1.50;;;16.20;99.90;;;;;;5053234;28;20106;-85
2021/10/03 03:13:33;;;;;;;4.72;2.53;;;16.10;99.90;;;;;;5056735;28;20066;-86
2021/10/03 03:15:59;;;;;;;2.70;1.98;;;16.20;99.90;;;;;;5054192;28;20034;-85
2021/10/03 03:18:25;;;;;;;4.78;2.22;;;16.10;99.90;;;;;;5088281;28;20028;-85
2021/10/03 03:20:50;;;;;;;5.80;2.67;;;16.10;99.90;;;;;;5060445;28;20412;-85
2021/10/03 03:23:16;;;;;;;3.55;2.22;;;16.10;99.90;;;;;;5058288;28;20028;-86
2021/10/03 03:25:42;;;;;;;8.05;3.03;;;16.10;99.90;;;;;;5070583;28;20708;-86
2021/10/03 03:28:07;;;;;;;8.95;3.03;;;16.00;99.90;;;;;;5053651;28;20031;-86
2021/10/03 03:30:34;;;;;;;5.00;2.88;;;16.00;99.90;;;;;;5070864;28;20035;-85
2021/10/03 03:32:59;;;;;;;4.53;2.53;;;15.90;99.90;;;;;;5054091;28;20066;-85
2021/10/03 03:35:25;;;;;;;4.32;3.38;;;15.90;99.90;;;;;;5069126;28;20500;-85
2021/10/03 03:37:51;;;;;;;5.40;4.55;;;15.90;99.90;;;;;;5055318;28;20457;-85
2021/10/03 03:40:18;;;;;;;5.05;2.75;;;15.90;99.90;;;;;;5057491;28;20078;-85
2021/10/03 03:42:44;;;;;;;3.20;2.38;;;15.90;99.90;;;;;;5054571;28;20109;-85
2021/10/03 03:45:09;;;;;;;2.05;1.65;;;15.80;99.90;;;;;;5056597;28;20028;-85
2021/10/03 03:47:35;;;;;;;6.95;3.75;;;15.80;99.90;;;;;;5054814;28;20403;-86
2021/10/03 03:50:01;;;;;;;6.40;3.10;;;15.80;99.90;;;;;;5056040;28;20088;-85
2021/10/03 03:52:26;;;;;;;6.05;2.75;;;15.80;99.90;;;;;;5054206;28;20128;-85
2021/10/03 03:54:52;;;;;;;6.03;3.35;;;15.80;99.90;;;;;;5055734;28;20038;-85
2021/10/03 03:57:17;;;;;;;8.10;3.85;;;15.70;99.90;;;;;;5056320;28;20110;-85
2021/10/03 03:59:43;;;;;;;3.72;2.50;;;15.70;99.90;;;;;;5074461;28;20119;-85
2021/10/03 04:02:08;;;;;;;4.10;3.60;;;15.70;99.90;;;;;;5059773;28;20076;-85
2021/10/03 04:04:34;;;;;;;6.57;3.58;;;15.70;99.90;;;;;;5059335;28;20027;-85
2021/10/03 04:06:59;;;;;;;5.22;3.75;;;15.70;99.90;;;;;;5059689;28;20024;-86
2021/10/03 04:09:25;;;;;;;10.13;4.18;;;15.60;99.90;;;;;;5060337;28;20569;-86
2021/10/03 04:11:50;;;;;;;8.27;4.22;;;15.60;99.90;;;;;;5074490;28;20475;-86
2021/10/03 04:14:16;;;;;;;5.10;3.88;;;15.60;99.90;;;;;;5064866;28;20031;-86
2021/10/03 04:16:41;;;;;;;6.90;3.30;;;15.60;99.90;;;;;;5072880;28;20364;-86
2021/10/03 04:19:07;;;;;;;5.97;3.80;;;15.60;99.90;;;;;;5074412;28;20020;-86
2021/10/03 04:21:33;;;;;;;5.70;2.92;;;15.60;99.90;;;;;;5074702;28;20443;-85
2021/10/03 04:23:58;;;;;;;6.20;4.18;;;15.60;99.90;;;;;;5072044;28;20514;-86
2021/10/03 04:26:25;;;;;;;9.27;5.45;;;15.60;99.90;;;;;;5091721;28;20023;-86
2021/10/03 04:28:51;;;;;;;6.35;4.15;;;15.60;99.90;;;;;;5074545;28;20442;-86
2021/10/03 04:31:16;;;;;;;6.65;5.40;;;15.60;99.90;;;;;;5077363;28;20034;-86
2021/10/03 04:33:44;;;;;;;6.43;4.03;;;15.60;99.90;;;;;;5056004;28;20073;-86
2021/10/03 04:36:10;;;;;;;5.95;4.20;;;15.50;99.90;;;;;;5061514;28;20038;-86
2021/10/03 04:38:36;;;;;;;7.30;4.28;;;15.60;99.90;;;;;;5074633;28;20048;-86
2021/10/03 04:41:03;;;;;;;6.22;4.57;;;15.60;99.90;;;;;;5075161;28;20039;-86
2021/10/03 04:43:29;;;;;;;9.45;5.03;;;15.60;99.90;;;;;;5073366;28;20038;-86
2021/10/03 04:45:54;;;;;;;5.90;4.65;;;15.50;99.90;;;;;;5069349;28;20036;-86
2021/10/03 04:48:20;;;;;;;8.07;4.78;;;15.50;99.90;;;;;;5058737;28;20483;-86
2021/10/03 04:50:45;;;;;;;8.38;4.57;;;15.60;99.90;;;;;;5072851;28;20479;-86
2021/10/03 04:53:11;;;;;;;8.10;4.85;;;15.50;99.90;;;;;;5061278;28;20388;-86
2021/10/03 04:55:36;;;;;;;7.45;4.32;;;15.50;99.90;;;;;;5056299;28;20028;-86
2021/10/03 04:58:02;;;;;;;6.28;4.95;;;15.50;99.90;;;;;;5073597;28;20024;-86
2021/10/03 05:00:28;;;;;;;7.22;4.95;;;15.50;99.90;;;;;;5051899;28;20028;-86
2021/10/03 05:02:53;;;;;;;8.43;4.80;;;15.50;99.90;;;;;;5057593;28;20058;-85
2021/10/03 05:05:20;;;;;;;7.95;4.75;;;15.50;99.90;;;;;;5062124;28;20023;-87
2021/10/03 05:07:45;;;;;;;6.85;4.72;;;15.50;99.90;;;;;;5057052;28;20624;-87
2021/10/03 05:10:11;;;;;;;7.45;3.83;;;15.50;99.90;;;;;;5057384;28;20118;-87
2021/10/03 05:12:36;;;;;;;7.70;5.13;;;15.40;99.90;;;;;;5070945;28;20115;-86
2021/10/03 05:15:02;;;;;;;6.70;4.82;;;15.50;99.90;;;;;;5035877;28;20081;-87
2021/10/03 05:17:27;;;;;;;6.90;5.80;;;15.50;99.90;;;;;;5071611;28;20028;-87
2021/10/03 05:19:53;;;;;;;8.20;6.13;;;15.50;99.90;;;;;;5058156;28;20040;-87
2021/10/03 05:22:19;;;;;;;12.18;6.50;;;15.50;99.90;;;;;;5075582;28;20032;-87
2021/10/03 05:24:44;;;;;;;14.52;6.38;;;15.50;99.90;;;;;;5059861;28;20036;-87
2021/10/03 05:27:28;;;;;;;8.88;5.80;;;15.40;99.90;;;;;;5042274;28;20470;-86
2021/10/03 05:30:03;;;;;;;13.20;6.72;;;15.40;99.90;;;;;;5090179;28;20042;-85
2021/10/03 05:32:29;;;;;;;13.07;7.70;;;15.50;99.90;;;;;;5073172;28;20047;-86
2021/10/03 05:34:54;;;;;;;11.68;7.60;;;15.50;99.90;;;;;;5048276;28;20242;-85
2021/10/03 05:37:28;;;;;;;10.38;7.15;;;15.50;99.90;;;;;;5078315;28;20035;-86
2021/10/03 05:39:59;;;;;;;11.48;8.05;;;15.50;99.90;;;;;;5059251;28;20398;-86
2021/10/03 05:42:25;;;;;;;10.98;7.15;;;15.50;99.90;;;;;;5056903;28;20492;-86
2021/10/03 05:44:50;;;;;;;8.30;5.88;;;15.50;99.90;;;;;;5025822;28;20107;-86
2021/10/03 05:47:16;;;;;;;13.43;7.03;;;15.50;99.90;;;;;;5058933;28;20058;-86
2021/10/03 05:49:41;;;;;;;10.55;6.82;;;15.50;99.90;;;;;;5077958;28;20031;-86
2021/10/03 05:52:07;;;;;;;9.95;6.95;;;15.50;99.90;;;;;;5074987;28;20043;-86
2021/10/03 05:54:32;;;;;;;10.93;6.75;;;15.40;99.90;;;;;;5064682;28;20018;-86
2021/10/03 05:56:58;;;;;;;11.77;7.07;;;15.50;99.90;;;;;;5078603;28;20141;-87
2021/10/03 05:59:24;;;;;;;10.93;6.70;;;15.50;99.90;;;;;;5060525;28;20023;-86
2021/10/03 06:01:49;;;;;;;11.10;7.38;;;15.50;99.90;;;;;;5076015;28;20023;-86
2021/10/03 06:04:15;;;;;;;8.93;6.30;;;15.50;99.90;;;;;;5058199;28;20034;-86
2021/10/03 06:06:40;;;;;;;15.52;7.65;;;15.50;99.90;;;;;;5059894;28;20032;-87
2021/10/03 06:09:06;;;;;;;9.93;7.65;;;15.50;99.90;;;;;;5057108;28;20023;-87
2021/10/03 06:11:31;;;;;;;10.40;6.63;;;15.60;99.90;;;;;;5053098;28;20051;-87
2021/10/03 06:14:10;;;;;;;;;;;;;;;;;;;;;
2021/10/03 06:16:37;;;;;;;10.30;6.78;;;15.50;99.90;;;;;;5074838;28;20024;-88
2021/10/03 06:19:08;;;;;;;13.68;6.68;;;15.50;99.90;;;;;;5054514;28;20039;-86
2021/10/03 06:21:34;;;;;;;10.57;7.65;;;15.60;99.90;;;;;;5040151;28;20044;-87
2021/10/03 06:24:00;;;;;;;9.63;6.47;;;15.60;99.90;;;;;;5055897;28;20031;-87
2021/10/03 06:26:25;;;;;;;10.35;7.15;;;15.60;99.90;;;;;;5064252;28;20036;-87
2021/10/03 06:28:51;;;;;;;9.48;6.45;;;15.60;99.90;;;;;;5057507;28;20546;-86
2021/10/03 06:31:16;;;;;;;11.63;6.90;;;15.70;99.90;;;;;;5056227;28;20069;-87
2021/10/03 06:33:42;;;;;;;10.00;7.18;;;15.60;99.90;;;;;;5071455;28;20031;-87
2021/10/03 06:36:08;;;;;;;9.10;6.75;;;15.60;99.90;;;;;;5090306;28;20491;-87
2021/10/03 06:38:34;;;;;;;8.38;6.75;;;15.60;99.90;;;;;;5059488;28;20255;-88
2021/10/03 06:40:59;;;;;;;10.15;6.60;;;15.60;99.90;;;;;;5058513;28;20024;-86
2021/10/03 06:43:25;;;;;;;9.20;6.50;;;15.60;99.90;;;;;;5059125;28;20529;-86
2021/10/03 06:45:51;;;;;;;12.68;7.13;;;15.60;99.90;;;;;;5073644;28;20057;-86
2021/10/03 06:48:16;;;;;;;9.60;6.47;;;15.70;99.90;;;;;;5058776;28;21045;-86
2021/10/03 06:50:42;;;;;;;9.00;6.40;;;15.70;99.90;;;;;;5059165;28;20057;-86
2021/10/03 06:53:08;;;;;;;15.25;6.68;;;15.70;99.90;;;;;;5069838;28;20044;-86
2021/10/03 06:55:33;;;;;;;10.07;6.50;;;15.70;99.90;;;;;;5057345;28;20394;-86
2021/10/03 06:58:03;;;;;;;13.57;6.93;;;15.70;99.90;;;;;;5074547;28;20089;-86
2021/10/03 07:00:29;;;;;;;8.93;6.38;;;15.70;99.90;;;;;;5057661;28;20035;-86
2021/10/03 07:02:54;;;;;;;9.60;5.80;;;15.70;99.90;;;;;;5070145;28;20455;-86
2021/10/03 07:05:38;;;;;;;9.68;6.18;;;15.70;99.90;;;;;;5080824;28;20039;-86
2021/10/03 07:08:05;;;;;;;10.77;7.28;;;15.70;99.90;;;;;;5073406;28;20485;-86
2021/10/03 07:10:31;;;;;;;9.00;6.85;;;15.70;99.90;;;;;;5055929;28;20032;-86
2021/10/03 07:12:57;;;;;;;14.32;7.38;;;15.80;99.90;;;;;;5054418;28;20058;-87
2021/10/03 07:15:22;;;;;;;10.00;7.90;;;15.80;99.90;;;;;;5055126;28;20024;-87
2021/10/03 07:17:48;;;;;;;8.50;6.75;;;15.80;99.90;;;;;;5057115;28;20058;-86
2021/10/03 07:20:13;;;;;;;8.77;6.38;;;15.90;99.90;;;;;;5055908;28;20032;-87
2021/10/03 07:22:39;;;;;;;7.10;5.65;;;15.80;99.90;;;;;;5055768;28;20070;-86
2021/10/03 07:25:05;;;;;;;11.18;6.28;;;15.90;99.90;;;;;;5057156;28;20032;-86
2021/10/03 07:27:31;;;;;;;8.30;6.85;;;15.90;99.90;;;;;;5056387;28;20028;-86
2021/10/03 07:29:56;;;;;;;10.65;6.80;;;15.90;99.90;;;;;;5059906;28;20594;-87
2021/10/03 07:32:22;;;;;;;13.70;7.45;;;15.90;99.90;;;;;;5054289;28;20044;-86
2021/10/03 07:34:48;;;;;;;7.90;6.43;;;15.90;99.90;;;;;;5055085;28;20059;-86
2021/10/03 07:37:13;;;;;;;8.98;6.35;;;15.90;99.90;;;;;;5051006;28;20035;-86
2021/10/03 07:39:39;;;;;;;10.48;7.45;;;16.00;99.90;;;;;;5084484;28;20043;-86
2021/10/03 07:42:05;;;;;;;10.35;6.75;;;16.00;99.90;;;;;;5057377;28;20031;-86
2021/10/03 07:44:30;;;;;;;10.13;7.10;;;16.00;99.90;;;;;;5073056;28;20486;-86
2021/10/03 07:46:56;;;;;;;10.45;7.40;;;16.00;99.90;;;;;;5057512;28;20036;-86
2021/10/03 07:49:22;;;;;;;12.90;7.45;;;15.90;99.90;;;;;;5058573;28;20028;-86
2021/10/03 07:51:47;;;;;;;7.85;5.97;;;16.00;99.90;;;;;;5075431;28;20489;-87
2021/10/03 07:54:13;;;;;;;10.65;7.20;;;16.00;99.90;;;;;;5056305;28;20024;-86
2021/10/03 07:56:38;;;;;;;9.52;6.70;;;16.00;99.90;;;;;;5054636;28;20027;-86
2021/10/03 07:59:07;;;;;;;7.95;7.00;;;16.00;99.90;;;;;;5057885;28;20031;-86
2021/10/03 08:01:33;;;;;;;9.57;7.10;;;16.00;99.90;;;;;;5057072;28;20102;-87
2021/10/03 08:03:58;;;;;;;8.85;6.55;;;16.00;99.90;;;;;;5054240;28;20626;-86
2021/10/03 08:06:27;;;;;;;9.68;6.95;;;16.10;99.90;;;;;;5054586;28;20031;-86
2021/10/03 08:08:53;;;;;;;8.18;6.15;;;16.00;99.90;;;;;;5072481;28;20023;-86
2021/10/03 08:11:18;;;;;;;9.65;6.80;;;16.00;99.90;;;;;;5051757;28;20157;-87
2021/10/03 08:13:44;;;;;;;10.35;7.47;;;15.90;99.90;;;;;;5071153;28;20510;-86
2021/10/03 08:16:12;;;;;;;9.63;6.57;;;16.00;99.90;;;;;;5055569;28;20032;-86
2021/10/03 08:18:37;;;;;;;12.00;7.50;;;16.00;99.90;;;;;;5072680;28;20027;-86
2021/10/03 08:21:03;;;;;;;8.85;7.05;;;16.00;99.90;;;;;;5053348;28;20058;-87
2021/10/03 08:23:29;;;;;;;12.13;7.78;;;16.00;99.90;;;;;;5058879;28;20034;-86
2021/10/03 08:25:54;;;;;;;14.27;5.90;;;16.00;99.90;;;;;;5055111;28;20036;-87
2021/10/03 08:28:20;;;;;;;10.38;6.93;;;16.00;99.90;;;;;;5072274;28;20080;-87
2021/10/03 08:30:47;;;;;;;8.25;5.47;;;16.00;99.90;;;;;;5054213;28;20103;-87
2021/10/03 08:33:13;;;;;;;8.00;5.68;;;16.00;99.90;;;;;;5058566;28;20036;-87
2021/10/03 08:35:38;;;;;;;9.55;6.90;;;16.00;99.90;;;;;;5068579;28;20054;-87
2021/10/03 08:38:04;;;;;;;7.63;5.05;;;16.00;99.90;;;;;;5062596;28;20030;-87
2021/10/03 08:40:30;;;;;;;10.32;7.00;;;16.00;99.90;;;;;;5072658;28;20460;-87
2021/10/03 08:42:55;;;;;;;12.60;7.30;;;16.10;99.90;;;;;;5060855;28;20040;-87
2021/10/03 08:45:21;;;;;;;10.77;6.72;;;16.00;99.90;;;;;;5076667;28;20027;-88
2021/10/03 08:47:47;;;;;;;11.90;7.18;;;16.00;99.90;;;;;;5059441;28;20351;-87
2021/10/03 08:50:15;;;;;;;11.75;6.85;;;16.00;99.90;;;;;;5056343;28;20058;-87
2021/10/03 08:52:42;;;;;;;8.93;6.80;;;16.10;99.90;;;;;;5062549;28;20053;-87
2021/10/03 08:55:08;;;;;;;8.73;6.45;;;16.10;99.90;;;;;;5058446;28;20058;-86
2021/10/03 08:57:33;;;;;;;10.50;7.18;;;16.10;99.90;;;;;;5058926;28;20030;-87
2021/10/03 09:00:00;;;;;;;11.57;7.10;;;16.10;99.90;;;;;;5057065;28;20032;-88
2021/10/03 09:02:26;;;;;;;12.35;7.28;;;16.10;99.90;;;;;;5055611;28;20028;-88
2021/10/03 09:04:57;;;;;;;8.05;5.82;;;16.10;99.90;;;;;;5075157;28;20061;-88
2021/10/03 09:07:22;;;;;;;7.25;4.93;;;16.10;99.90;;;;;;5061405;28;20158;-88
2021/10/03 09:09:52;;;;;;;9.65;6.47;;;16.10;99.90;;;;;;5062099;28;20299;-89
2021/10/03 09:12:31;;;;;;;8.60;5.70;;;16.20;99.90;;;;;;5064861;28;20032;-88
2021/10/03 09:14:57;;;;;;;8.85;6.07;;;16.20;99.90;;;;;;5071435;28;20032;-88
2021/10/03 09:17:52;;;;;;;9.13;7.10;;;16.20;99.90;;;;;;5030073;28;20540;-88
2021/10/03 09:20:24;;;;;;;10.02;7.15;;;16.20;99.90;;;;;;5050497;28;20032;-88
2021/10/03 09:23:17;;;;;;;10.95;6.60;;;16.20;99.90;;;;;;5071700;28;20453;-88
2021/10/03 09:25:50;;;;;;;10.63;6.53;;;16.20;99.90;;;;;;5061516;28;20098;-88
2021/10/03 09:28:25;;;;;;;8.13;6.78;;;16.20;99.90;;;;;;5071344;28;20078;-88
2021/10/03 09:31:14;;;;;;;11.45;7.82;;;16.20;99.90;;;;;;5046317;28;20411;-92
2021/10/03 09:33:53;;;;;;;8.70;6.32;;;16.20;99.90;;;;;;5065138;28;20035;-89
2021/10/03 09:36:28;;;;;;;7.50;6.35;;;16.20;99.90;;;;;;5063437;28;20028;-88
2021/10/03 09:39:00;;;;;;;7.20;5.57;;;16.30;99.90;;;;;;5061090;28;20036;-88
2021/10/03 09:41:31;;;;;;;10.63;6.82;;;16.30;99.90;;;;;;5071628;28;20043;-89
2021/10/03 09:43:59;;;;;;;12.13;6.45;;;16.30;99.90;;;;;;5065726;28;20036;-88
2021/10/03 09:46:48;;;;;;;12.98;6.50;;;16.30;99.90;;;;;;5067003;28;20057;-88
2021/10/03 09:49:26;;;;;;;8.57;6.55;;;16.30;99.90;;;;;;5070539;28;20304;-88
2021/10/03 09:51:59;;;;;;;12.20;7.18;;;16.30;99.90;;;;;;5075784;28;20038;-89
2021/10/03 09:54:26;;;;;;;9.25;6.68;;;16.30;99.90;;;;;;5037994;28;20039;-89
2021/10/03 09:57:00;;;;;;;9.15;7.53;;;16.30;99.90;;;;;;5047150;28;20016;-88
2021/10/03 09:59:26;;;;;;;11.15;7.00;;;16.30;99.90;;;;;;5033866;28;20040;-90
2021/10/03 10:02:14;;;;;;;9.15;5.68;;;16.40;99.90;;;;;;5069221;28;20028;-89
2021/10/03 10:04:42;;;;;;;10.43;6.43;;;16.40;99.90;;;;;;5168245;22;20368;-89
2021/10/03 10:07:08;;;;;;;9.57;6.40;;;16.40;99.90;;;;;;5016061;28;20397;-88
2021/10/03 10:09:34;;;;;;;11.32;6.65;;;16.40;99.90;;;;;;5035820;28;20037;-89
2021/10/03 10:12:07;;;;;;;11.52;6.90;;;16.50;99.90;;;;;;5040112;28;20060;-89
2021/10/03 10:14:43;;;;;;;8.85;5.93;;;16.50;99.90;;;;;;5024261;28;20032;-88
2021/10/03 10:17:38;;;;;;;7.28;5.80;;;16.50;99.90;;;;;;5020509;28;20029;-88
2021/10/03 10:20:24;;;;;;;8.23;6.55;;;16.50;99.90;;;;;;5007621;28;20049;-88
2021/10/03 10:22:57;;;;;;;9.00;6.10;;;16.60;99.90;;;;;;5028256;28;20036;-88
2021/10/03 10:25:47;;;;;;;9.95;6.57;;;16.60;99.90;;;;;;5031871;28;20036;-89
2021/10/03 10:28:21;;;;;;;10.33;6.50;;;16.60;99.90;;;;;;4711558;28;10000721;-88
2021/10/03 10:31:16;;;;;;;4.88;4.22;;;16.70;99.90;;;;;;4674495;28;10000179;-87
2021/10/03 10:33:50;;;;;;;9.88;6.28;;;16.60;99.90;;;;;;5041127;28;20117;-87
2021/10/03 10:36:36;;;;;;;10.43;6.45;;;16.60;99.90;;;;;;5037774;28;20029;-88
2021/10/03 10:39:07;;;;;;;10.67;7.13;;;16.60;99.90;;;;;;5014267;28;20044;-87
2021/10/03 10:41:50;;;;;;;8.07;5.75;;;16.60;99.90;;;;;;5042169;28;20685;-86
2021/10/03 10:44:26;;;;;;;9.55;6.25;;;16.70;99.90;;;;;;5006673;28;20063;-86
2021/10/03 10:46:57;;;;;;;10.77;5.85;;;16.70;99.90;;;;;;5044810;28;20032;-87
2021/10/03 10:49:43;;;;;;;7.47;5.32;;;16.80;99.90;;;;;;5017281;28;20056;-87
2021/10/03 10:52:18;;;;;;;7.67;5.40;;;16.70;99.90;;;;;;5029148;28;20036;-87
2021/10/03 10:55:04;;;;;;;10.17;6.63;;;16.70;99.90;;;;;;5045478;28;20027;-86
2021/10/03 10:57:32;;;;;;;9.52;6.80;;;16.70;99.90;;;;;;5045469;28;20024;-87
2021/10/03 11:00:25;;;;;;;8.75;6.03;;;16.70;99.90;;;;;;5016195;28;20033;-87
2021/10/03 11:03:01;;;;;;;8.18;6.70;;;16.70;99.90;;;;;;5034550;28;20040;-87
2021/10/03 11:05:36;;;;;;;7.90;4.93;;;16.70;99.90;;;;;;5052501;28;20745;-87
2021/10/03 11:08:11;;;;;;;8.23;5.70;;;16.80;99.90;;;;;;5044651;28;20032;-87
2021/10/03 11:13:45;;;;;;;9.02;6.50;;;16.80;99.90;;;;;;5079133;28;20032;-87
2021/10/03 11:16:30;;;;;;;9.13;6.43;;;16.80;99.90;;;;;;5066803;28;20737;-87
2021/10/03 11:19:07;;;;;;;7.35;5.53;;;16.90;99.90;;;;;;5063430;28;20442;-88
2021/10/03 11:21:56;;;;;;;7.60;5.65;;;16.80;99.90;;;;;;5049344;28;20032;-87
2021/10/03 11:24:36;;;;;;;7.50;5.93;;;16.80;99.90;;;;;;5044316;28;20036;-87
2021/10/03 11:27:03;;;;;;;6.75;5.78;;;16.90;99.90;;;;;;5015844;28;20620;-87
2021/10/03 11:29:34;;;;;;;8.98;5.60;;;16.80;99.90;;;;;;5028401;28;20087;-87
2021/10/03 11:32:04;;;;;;;9.32;6.05;;;16.90;99.90;;;;;;5034282;28;20032;-88
2021/10/03 11:34:39;;;;;;;6.60;5.43;;;16.80;99.90;;;;;;5046078;28;20034;-87
2021/10/03 11:37:10;;;;;;;9.93;6.07;;;16.80;99.90;;;;;;5026813;28;20126;-88
2021/10/03 11:39:53;;;;;;;9.05;6.50;;;16.80;99.90;;;;;;5007332;28;20025;-88
2021/10/03 11:42:40;;;;;;;9.13;6.22;;;16.80;99.90;;;;;;4997480;28;20423;-88
2021/10/03 11:45:07;;;;;;;7.72;5.88;;;16.80;99.90;;;;;;5014031;28;20503;-87
2021/10/03 11:48:03;;;;;;;8.88;6.45;;;16.80;99.90;;;;;;5033623;28;20061;-86
2021/10/03 11:50:50;;;;;;;8.57;6.43;;;16.80;99.90;;;;;;5030089;28;20559;-87
2021/10/03 11:53:24;;;;;;;8.68;5.97;;;16.90;99.90;;;;;;5030846;28;20028;-88
2021/10/03 11:56:04;;;;;;;10.18;5.18;;;16.90;99.90;;;;;;5028462;28;20032;-86
2021/10/03 11:58:37;;;;;;;8.13;6.95;;;16.80;99.90;;;;;;5024685;28;20434;-86
2021/10/03 12:01:03;;;;;;;9.02;7.00;;;16.80;99.90;;;;;;5032102;28;20424;-87
2021/10/03 12:03:38;;;;;;;11.13;6.57;;;16.80;99.90;;;;;;5044334;28;20033;-87
2021/10/03 12:06:39;;;;;;;9.68;5.60;;;16.80;99.90;;;;;;5024885;28;20067;-87
2021/10/03 12:09:11;;;;;;;9.60;5.55;;;16.80;99.90;;;;;;4972511;28;20085;-87
2021/10/03 12:11:49;;;;;;;8.48;5.03;;;16.70;99.90;;;;;;5037577;28;20107;-87
2021/10/03 12:14:15;;;;;;;23.73;7.38;;;16.80;99.90;;;;;;5021889;28;20385;-87
2021/10/03 12:16:59;;;;;;;17.35;6.85;;;16.80;99.90;;;;;;5047458;28;20063;-87
2021/10/03 12:19:33;;;;;;;9.43;6.10;;;16.70;99.90;;;;;;5045703;28;20024;-87
2021/10/03 12:22:05;;;;;;;5.90;3.22;;;16.80;99.90;;;;;;5024145;28;20036;-87
2021/10/03 12:24:31;;;;;;;10.50;5.63;;;16.80;99.90;;;;;;5050742;28;20051;-87
2021/10/03 12:26:56;;;;;;;6.32;4.82;;;16.80;99.90;;;;;;5040322;28;20630;-87
2021/10/03 12:29:36;;;;;;;8.18;6.28;;;16.80;99.90;;;;;;5071590;28;20036;-86
2021/10/03 12:32:10;;;;;;;5.65;4.82;;;16.90;99.90;;;;;;5054310;28;20080;-86
2021/10/03 12:34:43;;;;;;;15.63;6.07;;;16.80;99.90;;;;;;5048742;28;20032;-87
2021/10/03 12:37:18;;;;;;;9.50;6.82;;;16.90;99.90;;;;;;5054575;28;20024;-87
2021/10/03 12:39:51;;;;;;;7.32;5.05;;;16.80;99.90;;;;;;5039186;28;20035;-87
2021/10/03 12:42:24;;;;;;;7.38;5.32;;;16.90;99.90;;;;;;5046752;28;20347;-87
2021/10/03 12:44:54;;;;;;;9.30;5.43;;;16.90;99.90;;;;;;5054686;28;20020;-86
2021/10/03 12:47:20;;;;;;;6.95;5.63;;;17.00;99.90;;;;;;5052867;28;20016;-85
2021/10/03 12:49:46;;;;;;;12.50;5.40;;;17.00;99.90;;;;;;5039956;28;20028;-87
2021/10/03 12:52:12;;;;;;;10.00;5.18;;;17.00;99.90;;;;;;5008275;28;20461;-87
2021/10/03 12:54:39;;;;;;;8.65;5.22;;;17.00;99.90;;;;;;5028199;28;20046;-86
2021/10/03 12:57:04;;;;;;;14.40;6.60;;;17.00;99.90;;;;;;5022215;28;20129;-87